sensor_id;sensor_type;location;lat;lon;timestamp;temperature;humidity
46608;DHT22;32330;51.936;7.184;2023-04-30T00:02:10;7.70;99.90
46608;DHT22;32330;51.936;7.184;2023-04-30T00:04:38;7.70;99.90
46608;DHT22;32330;51.936;7.184;2023-04-30T00:07:05;7.70;99.90
46608;DHT22;32330;51.936;7.184;2023-04-30T00:09:33;7.70;99.90
46608;DHT22;32330;51.936;7.184;2023-04-30T00:12:00;7.60;99.90
46608;DHT22;32330;51.936;7.184;2023-04-30T00:14:27;7.60;99.90
46608;DHT22;32330;51.936;7.184;2023-04-30T00:16:54;7.60;99.90
46608;DHT22;32330;51.936;7.184;2023-04-30T00:19:21;7.50;99.90
46608;DHT22;32330;51.936;7.184;2023-04-30T00:21:49;7.40;99.90
46608;DHT22;32330;51.936;7.184;2023-04-30T00:24:16;7.40;99.90
46608;DHT22;32330;51.936;7.184;2023-04-30T00:26:43;7.30;99.90
46608;DHT22;32330;51.936;7.184;2023-04-30T00:29:10;7.30;99.90
46608;DHT22;32330;51.936;7.184;2023-04-30T00:31:37;7.30;99.90
46608;DHT22;32330;51.936;7.184;2023-04-30T00:34:04;7.20;99.90
46608;DHT22;32330;51.936;7.184;2023-04-30T00:36:31;7.20;99.90
46608;DHT22;32330;51.936;7.184;2023-04-30T00:38:59;7.10;99.90
46608;DHT22;32330;51.936;7.184;2023-04-30T00:41:26;7.10;99.90
46608;DHT22;32330;51.936;7.184;2023-04-30T00:43:53;7.10;99.90
46608;DHT22;32330;51.936;7.184;2023-04-30T00:46:20;7.10;99.90
46608;DHT22;32330;51.936;7.184;2023-04-30T00:48:47;7.00;99.90
46608;DHT22;32330;51.936;7.184;2023-04-30T00:51:15;6.90;99.90
46608;DHT22;32330;51.936;7.184;2023-04-30T00:53:42;6.90;99.90
46608;DHT22;32330;51.936;7.184;2023-04-30T00:56:12;6.90;99.90
46608;DHT22;32330;51.936;7.184;2023-04-30T00:58:41;6.80;99.90
46608;DHT22;32330;51.936;7.184;2023-04-30T01:01:08;6.80;99.90
46608;DHT22;32330;51.936;7.184;2023-04-30T01:03:35;6.80;99.90
46608;DHT22;32330;51.936;7.184;2023-04-30T01:06:02;6.70;99.90
46608;DHT22;32330;51.936;7.184;2023-04-30T01:08:30;6.70;99.90
46608;DHT22;32330;51.936;7.184;2023-04-30T01:11:09;6.70;99.90
46608;DHT22;32330;51.936;7.184;2023-04-30T01:13:45;6.60;99.90
46608;DHT22;32330;51.936;7.184;2023-04-30T01:16:20;6.60;99.90
46608;DHT22;32330;51.936;7.184;2023-04-30T01:18:54;6.50;99.90
46608;DHT22;32330;51.936;7.184;2023-04-30T01:21:23;6.50;99.90
46608;DHT22;32330;51.936;7.184;2023-04-30T01:24:23;6.50;99.90
46608;DHT22;32330;51.936;7.184;2023-04-30T01:27:11;6.50;99.90
46608;DHT22;32330;51.936;7.184;2023-04-30T01:29:42;6.50;99.90
46608;DHT22;32330;51.936;7.184;2023-04-30T01:32:11;6.40;99.90
46608;DHT22;32330;51.936;7.184;2023-04-30T01:34:39;6.30;99.90
46608;DHT22;32330;51.936;7.184;2023-04-30T01:37:15;6.30;99.90
46608;DHT22;32330;51.936;7.184;2023-04-30T01:39:56;6.30;99.90
46608;DHT22;32330;51.936;7.184;2023-04-30T01:42:28;6.20;99.90
46608;DHT22;32330;51.936;7.184;2023-04-30T01:45:22;6.20;99.90
46608;DHT22;32330;51.936;7.184;2023-04-30T01:48:03;6.20;99.90
46608;DHT22;32330;51.936;7.184;2023-04-30T01:50:37;6.10;99.90
46608;DHT22;32330;51.936;7.184;2023-04-30T01:53:06;6.10;99.90
46608;DHT22;32330;51.936;7.184;2023-04-30T01:55:40;6.10;99.90
46608;DHT22;32330;51.936;7.184;2023-04-30T01:58:10;6.00;99.90
46608;DHT22;32330;51.936;7.184;2023-04-30T02:00:39;6.00;99.90
46608;DHT22;32330;51.936;7.184;2023-04-30T02:03:07;6.00;99.90
46608;DHT22;32330;51.936;7.184;2023-04-30T02:05:34;6.00;99.90
46608;DHT22;32330;51.936;7.184;2023-04-30T02:08:02;5.90;99.90
46608;DHT22;32330;51.936;7.184;2023-04-30T02:10:30;5.90;99.90
46608;DHT22;32330;51.936;7.184;2023-04-30T02:12:56;5.90;99.90
46608;DHT22;32330;51.936;7.184;2023-04-30T02:15:23;5.80;99.90
46608;DHT22;32330;51.936;7.184;2023-04-30T02:17:52;5.80;99.90
46608;DHT22;32330;51.936;7.184;2023-04-30T02:20:19;5.80;99.90
46608;DHT22;32330;51.936;7.184;2023-04-30T02:22:46;5.70;99.90
46608;DHT22;32330;51.936;7.184;2023-04-30T02:25:13;5.70;99.90
46608;DHT22;32330;51.936;7.184;2023-04-30T02:27:40;5.70;99.90
46608;DHT22;32330;51.936;7.184;2023-04-30T02:30:08;5.70;99.90
46608;DHT22;32330;51.936;7.184;2023-04-30T02:32:35;5.70;99.90
46608;DHT22;32330;51.936;7.184;2023-04-30T02:35:04;5.60;99.90
46608;DHT22;32330;51.936;7.184;2023-04-30T02:37:31;5.60;99.90
46608;DHT22;32330;51.936;7.184;2023-04-30T02:39:59;5.60;99.90
46608;DHT22;32330;51.936;7.184;2023-04-30T02:42:25;5.50;99.90
46608;DHT22;32330;51.936;7.184;2023-04-30T02:44:52;5.60;99.90
46608;DHT22;32330;51.936;7.184;2023-04-30T02:47:20;5.50;99.90
46608;DHT22;32330;51.936;7.184;2023-04-30T02:49:46;5.50;99.90
46608;DHT22;32330;51.936;7.184;2023-04-30T02:52:15;5.50;99.90
46608;DHT22;32330;51.936;7.184;2023-04-30T02:54:42;5.50;99.90
46608;DHT22;32330;51.936;7.184;2023-04-30T02:57:09;5.50;99.90
46608;DHT22;32330;51.936;7.184;2023-04-30T02:59:36;5.50;99.90
46608;DHT22;32330;51.936;7.184;2023-04-30T03:02:03;5.50;99.90
46608;DHT22;32330;51.936;7.184;2023-04-30T03:04:30;5.50;99.90
46608;DHT22;32330;51.936;7.184;2023-04-30T03:06:57;5.40;99.90
46608;DHT22;32330;51.936;7.184;2023-04-30T03:09:26;5.50;99.90
46608;DHT22;32330;51.936;7.184;2023-04-30T03:11:53;5.50;99.90
46608;DHT22;32330;51.936;7.184;2023-04-30T03:14:20;5.50;99.90
46608;DHT22;32330;51.936;7.184;2023-04-30T03:16:48;5.60;99.90
46608;DHT22;32330;51.936;7.184;2023-04-30T03:19:15;5.60;99.90
46608;DHT22;32330;51.936;7.184;2023-04-30T03:21:42;5.70;99.90
46608;DHT22;32330;51.936;7.184;2023-04-30T03:24:09;5.70;99.90
46608;DHT22;32330;51.936;7.184;2023-04-30T03:26:37;5.70;99.90
46608;DHT22;32330;51.936;7.184;2023-04-30T03:29:04;5.70;99.90
46608;DHT22;32330;51.936;7.184;2023-04-30T03:31:31;5.70;99.90
46608;DHT22;32330;51.936;7.184;2023-04-30T03:33:58;5.60;99.90
46608;DHT22;32330;51.936;7.184;2023-04-30T03:36:25;5.70;99.90
46608;DHT22;32330;51.936;7.184;2023-04-30T03:38:53;5.60;99.90
46608;DHT22;32330;51.936;7.184;2023-04-30T03:41:20;5.60;99.90
46608;DHT22;32330;51.936;7.184;2023-04-30T03:43:50;5.60;99.90
46608;DHT22;32330;51.936;7.184;2023-04-30T03:46:17;5.60;99.90
46608;DHT22;32330;51.936;7.184;2023-04-30T03:48:44;5.60;99.90
46608;DHT22;32330;51.936;7.184;2023-04-30T03:51:11;5.70;99.90
46608;DHT22;32330;51.936;7.184;2023-04-30T03:53:38;5.70;99.90
46608;DHT22;32330;51.936;7.184;2023-04-30T03:56:06;5.70;99.90
46608;DHT22;32330;51.936;7.184;2023-04-30T03:58:33;5.70;99.90
46608;DHT22;32330;51.936;7.184;2023-04-30T04:01:01;5.70;99.90
46608;DHT22;32330;51.936;7.184;2023-04-30T04:03:29;5.70;99.90
46608;DHT22;32330;51.936;7.184;2023-04-30T04:05:57;5.70;99.90
46608;DHT22;32330;51.936;7.184;2023-04-30T04:08:24;5.70;99.90
46608;DHT22;32330;51.936;7.184;2023-04-30T04:10:51;5.70;99.90
46608;DHT22;32330;51.936;7.184;2023-04-30T04:13:18;5.70;99.90
46608;DHT22;32330;51.936;7.184;2023-04-30T04:15:45;5.70;99.90
46608;DHT22;32330;51.936;7.184;2023-04-30T04:18:13;5.70;99.90
46608;DHT22;32330;51.936;7.184;2023-04-30T04:20:40;5.70;99.90
46608;DHT22;32330;51.936;7.184;2023-04-30T04:23:07;5.70;99.90
46608;DHT22;32330;51.936;7.184;2023-04-30T04:25:34;5.70;99.90
46608;DHT22;32330;51.936;7.184;2023-04-30T04:28:01;5.70;99.90
46608;DHT22;32330;51.936;7.184;2023-04-30T04:30:28;5.80;99.90
46608;DHT22;32330;51.936;7.184;2023-04-30T04:32:55;5.80;99.90
46608;DHT22;32330;51.936;7.184;2023-04-30T04:35:24;5.70;99.90
46608;DHT22;32330;51.936;7.184;2023-04-30T04:37:51;5.80;99.90
46608;DHT22;32330;51.936;7.184;2023-04-30T04:40:18;5.80;99.90
46608;DHT22;32330;51.936;7.184;2023-04-30T04:42:48;5.80;99.90
46608;DHT22;32330;51.936;7.184;2023-04-30T04:45:16;5.80;99.90
46608;DHT22;32330;51.936;7.184;2023-04-30T04:47:44;5.80;99.90
46608;DHT22;32330;51.936;7.184;2023-04-30T04:50:11;5.80;99.90
46608;DHT22;32330;51.936;7.184;2023-04-30T04:52:40;5.80;99.90
46608;DHT22;32330;51.936;7.184;2023-04-30T04:55:08;5.80;99.90
46608;DHT22;32330;51.936;7.184;2023-04-30T04:57:36;5.90;99.90
46608;DHT22;32330;51.936;7.184;2023-04-30T05:00:03;5.90;99.90
46608;DHT22;32330;51.936;7.184;2023-04-30T05:02:32;5.90;99.90
46608;DHT22;32330;51.936;7.184;2023-04-30T05:04:59;5.90;99.90
46608;DHT22;32330;51.936;7.184;2023-04-30T05:07:27;6.00;99.90
46608;DHT22;32330;51.936;7.184;2023-04-30T05:09:56;6.00;99.90
46608;DHT22;32330;51.936;7.184;2023-04-30T05:12:23;6.00;99.90
46608;DHT22;32330;51.936;7.184;2023-04-30T05:14:50;6.00;99.90
46608;DHT22;32330;51.936;7.184;2023-04-30T05:17:17;6.00;99.90
46608;DHT22;32330;51.936;7.184;2023-04-30T05:19:44;6.10;99.90
46608;DHT22;32330;51.936;7.184;2023-04-30T05:22:12;6.20;99.90
46608;DHT22;32330;51.936;7.184;2023-04-30T05:24:39;6.20;99.90
46608;DHT22;32330;51.936;7.184;2023-04-30T05:27:08;6.20;99.90
46608;DHT22;32330;51.936;7.184;2023-04-30T05:29:35;6.30;99.90
46608;DHT22;32330;51.936;7.184;2023-04-30T05:32:02;6.40;99.90
46608;DHT22;32330;51.936;7.184;2023-04-30T05:34:29;6.40;99.90
46608;DHT22;32330;51.936;7.184;2023-04-30T05:36:56;6.50;99.90
46608;DHT22;32330;51.936;7.184;2023-04-30T05:39:23;6.60;99.90
46608;DHT22;32330;51.936;7.184;2023-04-30T05:41:50;6.60;99.90
46608;DHT22;32330;51.936;7.184;2023-04-30T05:44:18;6.70;99.90
46608;DHT22;32330;51.936;7.184;2023-04-30T05:46:45;6.80;99.90
46608;DHT22;32330;51.936;7.184;2023-04-30T05:49:12;6.90;99.90
46608;DHT22;32330;51.936;7.184;2023-04-30T05:51:39;7.00;99.90
46608;DHT22;32330;51.936;7.184;2023-04-30T05:54:06;7.10;99.90
46608;DHT22;32330;51.936;7.184;2023-04-30T05:56:33;7.20;99.90
46608;DHT22;32330;51.936;7.184;2023-04-30T05:59:00;7.30;99.90
46608;DHT22;32330;51.936;7.184;2023-04-30T06:01:28;7.40;99.90
46608;DHT22;32330;51.936;7.184;2023-04-30T06:03:55;7.50;99.90
46608;DHT22;32330;51.936;7.184;2023-04-30T06:06:23;7.60;99.90
46608;DHT22;32330;51.936;7.184;2023-04-30T06:08:50;7.70;99.90
46608;DHT22;32330;51.936;7.184;2023-04-30T06:11:17;7.90;99.90
46608;DHT22;32330;51.936;7.184;2023-04-30T06:13:46;8.00;99.90
46608;DHT22;32330;51.936;7.184;2023-04-30T06:16:13;8.10;99.90
46608;DHT22;32330;51.936;7.184;2023-04-30T06:18:41;8.30;99.90
46608;DHT22;32330;51.936;7.184;2023-04-30T06:21:09;8.40;99.90
46608;DHT22;32330;51.936;7.184;2023-04-30T06:23:36;8.50;99.90
46608;DHT22;32330;51.936;7.184;2023-04-30T06:26:03;8.70;99.90
46608;DHT22;32330;51.936;7.184;2023-04-30T06:28:30;8.80;99.90
46608;DHT22;32330;51.936;7.184;2023-04-30T06:30:57;8.90;99.90
46608;DHT22;32330;51.936;7.184;2023-04-30T06:33:24;9.00;99.90
46608;DHT22;32330;51.936;7.184;2023-04-30T06:35:53;9.10;99.90
46608;DHT22;32330;51.936;7.184;2023-04-30T06:38:20;9.20;99.90
46608;DHT22;32330;51.936;7.184;2023-04-30T06:40:47;9.30;99.90
46608;DHT22;32330;51.936;7.184;2023-04-30T06:43:14;9.30;99.90
46608;DHT22;32330;51.936;7.184;2023-04-30T06:45:41;9.50;99.90
46608;DHT22;32330;51.936;7.184;2023-04-30T06:48:08;9.60;99.90
46608;DHT22;32330;51.936;7.184;2023-04-30T06:50:35;9.70;99.90
46608;DHT22;32330;51.936;7.184;2023-04-30T06:53:10;9.80;99.90
46608;DHT22;32330;51.936;7.184;2023-04-30T06:55:37;9.90;99.90
46608;DHT22;32330;51.936;7.184;2023-04-30T06:58:04;10.20;99.90
46608;DHT22;32330;51.936;7.184;2023-04-30T07:00:32;10.20;99.90
46608;DHT22;32330;51.936;7.184;2023-04-30T07:02:59;10.30;99.90
46608;DHT22;32330;51.936;7.184;2023-04-30T07:05:28;10.30;99.90
46608;DHT22;32330;51.936;7.184;2023-04-30T07:07:55;10.40;99.90
46608;DHT22;32330;51.936;7.184;2023-04-30T07:10:23;10.60;99.90
46608;DHT22;32330;51.936;7.184;2023-04-30T07:12:50;10.80;99.90
46608;DHT22;32330;51.936;7.184;2023-04-30T07:15:17;10.90;99.90
46608;DHT22;32330;51.936;7.184;2023-04-30T07:17:44;10.90;53.40
46608;DHT22;32330;51.936;7.184;2023-04-30T07:20:12;11.10;46.30
46608;DHT22;32330;51.936;7.184;2023-04-30T07:22:39;11.10;38.30
46608;DHT22;32330;51.936;7.184;2023-04-30T07:25:09;11.30;36.10
46608;DHT22;32330;51.936;7.184;2023-04-30T07:27:38;11.40;22.60
46608;DHT22;32330;51.936;7.184;2023-04-30T07:30:06;11.50;28.40
46608;DHT22;32330;51.936;7.184;2023-04-30T07:32:34;11.60;23.90
46608;DHT22;32330;51.936;7.184;2023-04-30T07:35:02;11.70;10.60
46608;DHT22;32330;51.936;7.184;2023-04-30T07:37:29;11.80;12.60
46608;DHT22;32330;51.936;7.184;2023-04-30T07:39:56;12.00;20.70
46608;DHT22;32330;51.936;7.184;2023-04-30T07:42:23;12.20;12.20
46608;DHT22;32330;51.936;7.184;2023-04-30T07:44:51;12.30;1.00
46608;DHT22;32330;51.936;7.184;2023-04-30T07:47:18;12.30;1.00
46608;DHT22;32330;51.936;7.184;2023-04-30T07:49:45;12.40;1.00
46608;DHT22;32330;51.936;7.184;2023-04-30T07:52:12;12.30;1.00
46608;DHT22;32330;51.936;7.184;2023-04-30T07:54:39;12.30;1.00
46608;DHT22;32330;51.936;7.184;2023-04-30T07:57:07;12.50;1.00
46608;DHT22;32330;51.936;7.184;2023-04-30T07:59:38;12.50;1.00
46608;DHT22;32330;51.936;7.184;2023-04-30T08:02:19;12.60;1.00
46608;DHT22;32330;51.936;7.184;2023-04-30T08:14:06;13.10;1.00
46608;DHT22;32330;51.936;7.184;2023-04-30T08:36:53;14.20;99.90
46608;DHT22;32330;51.936;7.184;2023-04-30T08:44:20;14.60;99.90
46608;DHT22;32330;51.936;7.184;2023-04-30T09:06:47;15.50;99.90
46608;DHT22;32330;51.936;7.184;2023-04-30T10:35:48;18.20;99.90
46608;DHT22;32330;51.936;7.184;2023-04-30T10:38:21;18.50;99.90
46608;DHT22;32330;51.936;7.184;2023-04-30T10:40:49;18.70;99.90
46608;DHT22;32330;51.936;7.184;2023-04-30T10:43:17;18.60;99.90
46608;DHT22;32330;51.936;7.184;2023-04-30T10:45:46;18.50;99.90
46608;DHT22;32330;51.936;7.184;2023-04-30T10:48:15;18.60;99.90
46608;DHT22;32330;51.936;7.184;2023-04-30T10:50:51;18.90;99.90
46608;DHT22;32330;51.936;7.184;2023-04-30T10:53:20;19.00;99.90
46608;DHT22;32330;51.936;7.184;2023-04-30T10:55:52;19.00;99.90
46608;DHT22;32330;51.936;7.184;2023-04-30T10:58:23;19.10;99.90
46608;DHT22;32330;51.936;7.184;2023-04-30T11:00:58;19.40;99.90
46608;DHT22;32330;51.936;7.184;2023-04-30T11:03:27;19.30;99.90
46608;DHT22;32330;51.936;7.184;2023-04-30T11:05:56;19.40;99.90
46608;DHT22;32330;51.936;7.184;2023-04-30T11:08:32;19.40;99.90
46608;DHT22;32330;51.936;7.184;2023-04-30T11:11:00;19.50;59.10
46608;DHT22;32330;51.936;7.184;2023-04-30T11:13:28;19.30;1.00
46608;DHT22;32330;51.936;7.184;2023-04-30T11:16:01;19.50;1.00
46608;DHT22;32330;51.936;7.184;2023-04-30T11:18:30;19.70;1.00
46608;DHT22;32330;51.936;7.184;2023-04-30T11:20:58;20.00;24.30
46608;DHT22;32330;51.936;7.184;2023-04-30T11:23:25;19.90;1.00
46608;DHT22;32330;51.936;7.184;2023-04-30T11:25:53;19.90;1.00
46608;DHT22;32330;51.936;7.184;2023-04-30T11:28:23;20.10;1.00
46608;DHT22;32330;51.936;7.184;2023-04-30T11:30:51;20.20;1.00
46608;DHT22;32330;51.936;7.184;2023-04-30T11:33:19;20.20;99.90
46608;DHT22;32330;51.936;7.184;2023-04-30T11:35:47;20.30;1.00
46608;DHT22;32330;51.936;7.184;2023-04-30T11:38:19;20.10;99.90
46608;DHT22;32330;51.936;7.184;2023-04-30T11:40:47;20.30;99.90
46608;DHT22;32330;51.936;7.184;2023-04-30T11:43:22;20.30;99.90
46608;DHT22;32330;51.936;7.184;2023-04-30T11:46:09;20.50;99.90
46608;DHT22;32330;51.936;7.184;2023-04-30T11:48:37;20.50;99.90
46608;DHT22;32330;51.936;7.184;2023-04-30T11:51:13;20.90;99.90
46608;DHT22;32330;51.936;7.184;2023-04-30T11:53:42;20.50;99.90
46608;DHT22;32330;51.936;7.184;2023-04-30T11:56:11;20.50;99.90
46608;DHT22;32330;51.936;7.184;2023-04-30T11:58:38;20.60;99.90
46608;DHT22;32330;51.936;7.184;2023-04-30T12:01:06;20.90;99.90
46608;DHT22;32330;51.936;7.184;2023-04-30T12:03:39;21.00;99.90
46608;DHT22;32330;51.936;7.184;2023-04-30T12:06:09;21.30;99.90
46608;DHT22;32330;51.936;7.184;2023-04-30T12:08:36;21.20;99.90
46608;DHT22;32330;51.936;7.184;2023-04-30T12:11:04;21.40;99.90
46608;DHT22;32330;51.936;7.184;2023-04-30T12:13:49;21.50;99.90
46608;DHT22;32330;51.936;7.184;2023-04-30T12:16:16;21.70;99.90
46608;DHT22;32330;51.936;7.184;2023-04-30T12:18:44;21.50;99.90
46608;DHT22;32330;51.936;7.184;2023-04-30T12:21:11;21.50;99.90
46608;DHT22;32330;51.936;7.184;2023-04-30T12:23:39;21.50;99.90
46608;DHT22;32330;51.936;7.184;2023-04-30T12:26:10;21.50;99.90
46608;DHT22;32330;51.936;7.184;2023-04-30T12:28:38;21.30;99.90
46608;DHT22;32330;51.936;7.184;2023-04-30T12:31:05;21.50;99.90
46608;DHT22;32330;51.936;7.184;2023-04-30T12:33:33;21.80;99.90
46608;DHT22;32330;51.936;7.184;2023-04-30T12:36:09;22.10;99.90
46608;DHT22;32330;51.936;7.184;2023-04-30T12:38:36;21.90;99.90
46608;DHT22;32330;51.936;7.184;2023-04-30T12:41:03;21.70;99.90
46608;DHT22;32330;51.936;7.184;2023-04-30T12:43:32;22.10;99.90
46608;DHT22;32330;51.936;7.184;2023-04-30T12:46:02;22.00;99.90
46608;DHT22;32330;51.936;7.184;2023-04-30T12:48:29;21.90;99.90
46608;DHT22;32330;51.936;7.184;2023-04-30T12:51:08;22.10;99.90
46608;DHT22;32330;51.936;7.184;2023-04-30T12:53:44;22.50;99.90
46608;DHT22;32330;51.936;7.184;2023-04-30T12:56:13;22.60;99.90
46608;DHT22;32330;51.936;7.184;2023-04-30T12:58:43;22.60;99.90
46608;DHT22;32330;51.936;7.184;2023-04-30T13:01:16;22.60;92.90
46608;DHT22;32330;51.936;7.184;2023-04-30T13:03:43;22.50;60.60
46608;DHT22;32330;51.936;7.184;2023-04-30T13:06:11;22.40;90.10
46608;DHT22;32330;51.936;7.184;2023-04-30T13:08:38;22.30;63.70
46608;DHT22;32330;51.936;7.184;2023-04-30T13:11:05;21.80;50.00
46608;DHT22;32330;51.936;7.184;2023-04-30T13:13:32;21.20;37.40
46608;DHT22;32330;51.936;7.184;2023-04-30T13:16:01;21.30;63.60
46608;DHT22;32330;51.936;7.184;2023-04-30T13:18:31;21.60;36.80
46608;DHT22;32330;51.936;7.184;2023-04-30T13:21:00;22.00;32.50
46608;DHT22;32330;51.936;7.184;2023-04-30T13:23:27;22.50;48.90
46608;DHT22;32330;51.936;7.184;2023-04-30T13:32:01;22.90;52.30
46608;DHT22;32330;51.936;7.184;2023-04-30T13:34:26;22.80;16.80
46608;DHT22;32330;51.936;7.184;2023-04-30T13:36:53;22.60;19.70
46608;DHT22;32330;51.936;7.184;2023-04-30T13:39:23;21.80;1.00
46608;DHT22;32330;51.936;7.184;2023-04-30T13:42:01;21.30;1.00
46608;DHT22;32330;51.936;7.184;2023-04-30T13:44:31;22.20;1.00
46608;DHT22;32330;51.936;7.184;2023-04-30T14:51:13;21.80;99.90
46608;DHT22;32330;51.936;7.184;2023-04-30T14:53:41;21.30;99.90
46608;DHT22;32330;51.936;7.184;2023-04-30T14:56:07;21.00;99.90
46608;DHT22;32330;51.936;7.184;2023-04-30T14:58:35;20.90;99.90
46608;DHT22;32330;51.936;7.184;2023-04-30T15:01:03;21.50;99.90
46608;DHT22;32330;51.936;7.184;2023-04-30T15:03:30;22.00;1.00
46608;DHT22;32330;51.936;7.184;2023-04-30T15:05:57;22.20;99.90
46608;DHT22;32330;51.936;7.184;2023-04-30T15:08:26;22.60;99.90
46608;DHT22;32330;51.936;7.184;2023-04-30T15:10:53;22.90;99.90
46608;DHT22;32330;51.936;7.184;2023-04-30T15:13:21;22.90;99.90
46608;DHT22;32330;51.936;7.184;2023-04-30T15:15:48;23.00;99.90
46608;DHT22;32330;51.936;7.184;2023-04-30T15:18:15;22.70;99.90
46608;DHT22;32330;51.936;7.184;2023-04-30T15:20:42;21.90;99.90
46608;DHT22;32330;51.936;7.184;2023-04-30T15:23:08;21.40;99.90
46608;DHT22;32330;51.936;7.184;2023-04-30T15:25:37;21.10;99.90
46608;DHT22;32330;51.936;7.184;2023-04-30T15:28:04;21.00;99.90
46608;DHT22;32330;51.936;7.184;2023-04-30T15:30:31;21.20;99.90
46608;DHT22;32330;51.936;7.184;2023-04-30T15:33:00;21.70;99.90
46608;DHT22;32330;51.936;7.184;2023-04-30T15:35:30;22.30;99.90
46608;DHT22;32330;51.936;7.184;2023-04-30T15:37:58;22.30;99.90
46608;DHT22;32330;51.936;7.184;2023-04-30T15:40:25;22.40;99.90
46608;DHT22;32330;51.936;7.184;2023-04-30T15:42:53;22.20;99.90
46608;DHT22;32330;51.936;7.184;2023-04-30T15:45:20;22.20;99.90
46608;DHT22;32330;51.936;7.184;2023-04-30T15:47:49;22.30;99.90
46608;DHT22;32330;51.936;7.184;2023-04-30T15:50:17;21.80;99.90
46608;DHT22;32330;51.936;7.184;2023-04-30T15:52:45;21.40;99.90
46608;DHT22;32330;51.936;7.184;2023-04-30T15:55:12;21.10;99.90
46608;DHT22;32330;51.936;7.184;2023-04-30T15:57:39;21.40;99.90
46608;DHT22;32330;51.936;7.184;2023-04-30T16:00:08;21.40;99.90
46608;DHT22;32330;51.936;7.184;2023-04-30T16:02:40;21.70;99.90
46608;DHT22;32330;51.936;7.184;2023-04-30T16:05:08;21.80;99.90
46608;DHT22;32330;51.936;7.184;2023-04-30T16:07:35;21.80;99.90
46608;DHT22;32330;51.936;7.184;2023-04-30T16:10:04;21.80;99.90
46608;DHT22;32330;51.936;7.184;2023-04-30T16:12:34;21.70;99.90
46608;DHT22;32330;51.936;7.184;2023-04-30T16:15:09;22.10;99.90
46608;DHT22;32330;51.936;7.184;2023-04-30T16:17:38;21.90;99.90
46608;DHT22;32330;51.936;7.184;2023-04-30T16:20:06;21.70;99.90
46608;DHT22;32330;51.936;7.184;2023-04-30T16:22:36;21.30;99.90
46608;DHT22;32330;51.936;7.184;2023-04-30T16:25:03;21.80;99.90
46608;DHT22;32330;51.936;7.184;2023-04-30T16:27:32;21.80;99.90
46608;DHT22;32330;51.936;7.184;2023-04-30T16:30:01;21.80;99.90
46608;DHT22;32330;51.936;7.184;2023-04-30T16:32:30;21.80;99.90
46608;DHT22;32330;51.936;7.184;2023-04-30T16:34:57;21.50;99.90
46608;DHT22;32330;51.936;7.184;2023-04-30T16:37:23;21.50;99.90
46608;DHT22;32330;51.936;7.184;2023-04-30T16:39:54;21.60;99.90
46608;DHT22;32330;51.936;7.184;2023-04-30T16:42:21;21.60;99.90
46608;DHT22;32330;51.936;7.184;2023-04-30T16:44:48;21.60;99.90
46608;DHT22;32330;51.936;7.184;2023-04-30T16:47:17;21.60;99.90
46608;DHT22;32330;51.936;7.184;2023-04-30T16:49:45;21.50;99.90
46608;DHT22;32330;51.936;7.184;2023-04-30T16:52:14;21.20;99.90
46608;DHT22;32330;51.936;7.184;2023-04-30T16:54:43;21.30;99.90
46608;DHT22;32330;51.936;7.184;2023-04-30T16:57:11;21.10;99.90
46608;DHT22;32330;51.936;7.184;2023-04-30T16:59:37;21.00;99.90
46608;DHT22;32330;51.936;7.184;2023-04-30T17:02:11;20.80;99.90
46608;DHT22;32330;51.936;7.184;2023-04-30T17:04:39;20.70;99.90
46608;DHT22;32330;51.936;7.184;2023-04-30T17:07:07;20.50;99.90
46608;DHT22;32330;51.936;7.184;2023-04-30T17:09:34;20.40;99.90
46608;DHT22;32330;51.936;7.184;2023-04-30T17:12:02;20.40;99.90
46608;DHT22;32330;51.936;7.184;2023-04-30T17:14:31;20.30;99.90
46608;DHT22;32330;51.936;7.184;2023-04-30T17:16:58;20.40;99.90
46608;DHT22;32330;51.936;7.184;2023-04-30T17:19:25;20.40;99.90
46608;DHT22;32330;51.936;7.184;2023-04-30T17:21:52;20.30;99.90
46608;DHT22;32330;51.936;7.184;2023-04-30T17:24:20;20.20;99.90
46608;DHT22;32330;51.936;7.184;2023-04-30T17:26:48;20.00;99.90
46608;DHT22;32330;51.936;7.184;2023-04-30T17:29:16;19.90;99.90
46608;DHT22;32330;51.936;7.184;2023-04-30T17:31:44;19.80;99.90
46608;DHT22;32330;51.936;7.184;2023-04-30T17:34:11;19.90;99.90
46608;DHT22;32330;51.936;7.184;2023-04-30T17:36:39;19.90;99.90
46608;DHT22;32330;51.936;7.184;2023-04-30T17:39:10;19.70;99.90
46608;DHT22;32330;51.936;7.184;2023-04-30T17:41:38;19.50;99.90
46608;DHT22;32330;51.936;7.184;2023-04-30T17:44:05;19.40;99.90
46608;DHT22;32330;51.936;7.184;2023-04-30T17:46:32;19.30;99.90
46608;DHT22;32330;51.936;7.184;2023-04-30T17:49:00;19.10;99.90
46608;DHT22;32330;51.936;7.184;2023-04-30T17:51:28;19.10;99.90
46608;DHT22;32330;51.936;7.184;2023-04-30T17:53:56;19.00;99.90
46608;DHT22;32330;51.936;7.184;2023-04-30T17:56:24;18.90;99.90
46608;DHT22;32330;51.936;7.184;2023-04-30T17:58:53;18.80;99.90
46608;DHT22;32330;51.936;7.184;2023-04-30T18:01:20;18.70;99.90
46608;DHT22;32330;51.936;7.184;2023-04-30T18:03:47;18.70;99.90
46608;DHT22;32330;51.936;7.184;2023-04-30T18:06:14;18.60;99.90
46608;DHT22;32330;51.936;7.184;2023-04-30T18:08:41;18.40;99.90
46608;DHT22;32330;51.936;7.184;2023-04-30T18:11:08;18.30;99.90
46608;DHT22;32330;51.936;7.184;2023-04-30T18:13:35;18.10;99.90
46608;DHT22;32330;51.936;7.184;2023-04-30T18:16:04;18.00;99.90
46608;DHT22;32330;51.936;7.184;2023-04-30T18:18:32;18.00;99.90
46608;DHT22;32330;51.936;7.184;2023-04-30T18:20:59;17.80;99.90
46608;DHT22;32330;51.936;7.184;2023-04-30T18:23:26;17.80;99.90
46608;DHT22;32330;51.936;7.184;2023-04-30T18:25:53;17.70;99.90
46608;DHT22;32330;51.936;7.184;2023-04-30T18:28:20;17.50;99.90
46608;DHT22;32330;51.936;7.184;2023-04-30T18:30:49;17.50;1.00
46608;DHT22;32330;51.936;7.184;2023-04-30T18:33:17;17.30;1.00
46608;DHT22;32330;51.936;7.184;2023-04-30T18:35:45;17.10;1.00
46608;DHT22;32330;51.936;7.184;2023-04-30T18:38:15;17.00;1.00
46608;DHT22;32330;51.936;7.184;2023-04-30T18:40:43;16.90;1.00
46608;DHT22;32330;51.936;7.184;2023-04-30T18:43:10;16.80;1.00
46608;DHT22;32330;51.936;7.184;2023-04-30T18:45:37;16.80;5.80
46608;DHT22;32330;51.936;7.184;2023-04-30T18:48:05;16.60;9.10
46608;DHT22;32330;51.936;7.184;2023-04-30T18:50:33;16.50;11.90
46608;DHT22;32330;51.936;7.184;2023-04-30T18:53:00;16.40;15.10
46608;DHT22;32330;51.936;7.184;2023-04-30T18:55:27;16.40;23.00
46608;DHT22;32330;51.936;7.184;2023-04-30T18:57:55;16.20;68.90
46608;DHT22;32330;51.936;7.184;2023-04-30T19:00:22;16.10;99.50
46608;DHT22;32330;51.936;7.184;2023-04-30T19:02:50;16.00;97.60
46608;DHT22;32330;51.936;7.184;2023-04-30T19:05:17;15.90;99.30
46608;DHT22;32330;51.936;7.184;2023-04-30T19:07:47;15.80;99.90
46608;DHT22;32330;51.936;7.184;2023-04-30T19:10:14;15.70;99.90
46608;DHT22;32330;51.936;7.184;2023-04-30T19:12:41;15.60;99.90
46608;DHT22;32330;51.936;7.184;2023-04-30T19:15:09;15.40;99.90
46608;DHT22;32330;51.936;7.184;2023-04-30T19:17:37;15.30;99.90